sensor_id;sensor_type;location;lat;lon;timestamp;P1;durP1;ratioP1;P2;durP2;ratioP2
44366;SDS011;30086;57.660;12.000;2023-04-09T00:00:02;7.97;;;3.53;;
44366;SDS011;30086;57.660;12.000;2023-04-09T00:02:29;5.60;;;3.33;;
44366;SDS011;30086;57.660;12.000;2023-04-09T00:04:55;4.50;;;3.03;;
44366;SDS011;30086;57.660;12.000;2023-04-09T00:07:21;7.20;;;3.58;;
44366;SDS011;30086;57.660;12.000;2023-04-09T00:09:47;7.10;;;3.10;;
44366;SDS011;30086;57.660;12.000;2023-04-09T00:12:14;5.72;;;3.20;;
44366;SDS011;30086;57.660;12.000;2023-04-09T00:14:40;4.55;;;3.22;;
44366;SDS011;30086;57.660;12.000;2023-04-09T00:17:06;4.85;;;2.65;;
44366;SDS011;30086;57.660;12.000;2023-04-09T00:19:32;5.95;;;2.92;;
44366;SDS011;30086;57.660;12.000;2023-04-09T00:21:58;5.53;;;3.00;;
44366;SDS011;30086;57.660;12.000;2023-04-09T00:24:24;4.47;;;2.80;;
44366;SDS011;30086;57.660;12.000;2023-04-09T00:26:50;6.82;;;2.90;;
44366;SDS011;30086;57.660;12.000;2023-04-09T00:29:17;8.10;;;2.50;;
44366;SDS011;30086;57.660;12.000;2023-04-09T00:31:43;6.40;;;2.40;;
44366;SDS011;30086;57.660;12.000;2023-04-09T00:34:09;6.97;;;2.22;;
44366;SDS011;30086;57.660;12.000;2023-04-09T00:36:35;5.20;;;2.15;;
44366;SDS011;30086;57.660;12.000;2023-04-09T00:39:01;4.18;;;2.33;;
44366;SDS011;30086;57.660;12.000;2023-04-09T00:41:27;6.65;;;2.88;;
44366;SDS011;30086;57.660;12.000;2023-04-09T00:43:55;5.03;;;2.40;;
44366;SDS011;30086;57.660;12.000;2023-04-09T00:46:21;5.32;;;2.60;;
44366;SDS011;30086;57.660;12.000;2023-04-09T00:48:47;5.75;;;2.60;;
44366;SDS011;30086;57.660;12.000;2023-04-09T00:51:15;4.80;;;2.42;;
44366;SDS011;30086;57.660;12.000;2023-04-09T00:53:41;4.45;;;2.40;;
44366;SDS011;30086;57.660;12.000;2023-04-09T00:56:08;5.28;;;2.20;;
44366;SDS011;30086;57.660;12.000;2023-04-09T00:58:35;5.13;;;2.17;;
44366;SDS011;30086;57.660;12.000;2023-04-09T01:01:01;5.35;;;2.50;;
44366;SDS011;30086;57.660;12.000;2023-04-09T01:03:27;4.05;;;2.38;;
44366;SDS011;30086;57.660;12.000;2023-04-09T01:08:38;3.00;;;2.30;;
44366;SDS011;30086;57.660;12.000;2023-04-09T01:13:49;3.83;;;2.25;;
44366;SDS011;30086;57.660;12.000;2023-04-09T01:16:19;7.07;;;2.10;;
44366;SDS011;30086;57.660;12.000;2023-04-09T01:18:51;4.18;;;2.45;;
44366;SDS011;30086;57.660;12.000;2023-04-09T01:21:20;5.95;;;1.90;;
44366;SDS011;30086;57.660;12.000;2023-04-09T01:28:44;3.47;;;2.28;;
44366;SDS011;30086;57.660;12.000;2023-04-09T01:31:12;5.18;;;2.22;;
44366;SDS011;30086;57.660;12.000;2023-04-09T01:33:38;2.70;;;1.77;;
44366;SDS011;30086;57.660;12.000;2023-04-09T01:36:05;3.40;;;2.10;;
44366;SDS011;30086;57.660;12.000;2023-04-09T01:38:32;5.50;;;2.40;;
44366;SDS011;30086;57.660;12.000;2023-04-09T01:41:00;3.30;;;2.08;;
44366;SDS011;30086;57.660;12.000;2023-04-09T01:43:27;2.60;;;1.67;;
44366;SDS011;30086;57.660;12.000;2023-04-09T01:45:53;4.03;;;2.25;;
44366;SDS011;30086;57.660;12.000;2023-04-09T01:48:19;4.55;;;1.60;;
44366;SDS011;30086;57.660;12.000;2023-04-09T01:50:45;3.78;;;1.80;;
44366;SDS011;30086;57.660;12.000;2023-04-09T01:53:12;4.72;;;2.17;;
44366;SDS011;30086;57.660;12.000;2023-04-09T01:55:38;3.75;;;2.13;;
44366;SDS011;30086;57.660;12.000;2023-04-09T01:58:04;5.25;;;1.70;;
44366;SDS011;30086;57.660;12.000;2023-04-09T02:00:33;3.67;;;2.10;;
44366;SDS011;30086;57.660;12.000;2023-04-09T02:03:14;2.55;;;1.77;;
44366;SDS011;30086;57.660;12.000;2023-04-09T02:05:43;2.28;;;1.60;;
44366;SDS011;30086;57.660;12.000;2023-04-09T02:08:11;2.75;;;1.85;;
44366;SDS011;30086;57.660;12.000;2023-04-09T02:10:39;2.53;;;1.77;;
44366;SDS011;30086;57.660;12.000;2023-04-09T02:13:05;4.13;;;1.80;;
44366;SDS011;30086;57.660;12.000;2023-04-09T02:15:35;4.68;;;1.85;;
44366;SDS011;30086;57.660;12.000;2023-04-09T02:18:01;2.97;;;1.85;;
44366;SDS011;30086;57.660;12.000;2023-04-09T02:20:27;4.22;;;1.95;;
44366;SDS011;30086;57.660;12.000;2023-04-09T02:22:53;2.35;;;1.65;;
44366;SDS011;30086;57.660;12.000;2023-04-09T02:25:21;1.95;;;1.58;;
44366;SDS011;30086;57.660;12.000;2023-04-09T02:27:47;3.20;;;1.90;;
44366;SDS011;30086;57.660;12.000;2023-04-09T02:30:13;6.43;;;1.90;;
44366;SDS011;30086;57.660;12.000;2023-04-09T02:32:39;3.15;;;2.08;;
44366;SDS011;30086;57.660;12.000;2023-04-09T02:35:05;3.28;;;2.13;;
44366;SDS011;30086;57.660;12.000;2023-04-09T02:37:31;5.05;;;1.77;;
44366;SDS011;30086;57.660;12.000;2023-04-09T02:39:57;4.32;;;2.10;;
44366;SDS011;30086;57.660;12.000;2023-04-09T02:42:23;1.90;;;1.60;;
44366;SDS011;30086;57.660;12.000;2023-04-09T02:44:49;5.03;;;2.05;;
44366;SDS011;30086;57.660;12.000;2023-04-09T02:47:15;3.40;;;1.67;;
44366;SDS011;30086;57.660;12.000;2023-04-09T02:49:41;3.33;;;1.85;;
44366;SDS011;30086;57.660;12.000;2023-04-09T02:52:08;3.53;;;2.05;;
44366;SDS011;30086;57.660;12.000;2023-04-09T02:54:35;4.75;;;2.40;;
44366;SDS011;30086;57.660;12.000;2023-04-09T02:57:01;6.72;;;1.98;;
44366;SDS011;30086;57.660;12.000;2023-04-09T02:59:27;3.78;;;2.28;;
44366;SDS011;30086;57.660;12.000;2023-04-09T03:01:56;4.50;;;1.80;;
44366;SDS011;30086;57.660;12.000;2023-04-09T03:04:23;3.97;;;2.33;;
44366;SDS011;30086;57.660;12.000;2023-04-09T03:06:49;4.82;;;2.22;;
44366;SDS011;30086;57.660;12.000;2023-04-09T03:09:15;3.30;;;2.22;;
44366;SDS011;30086;57.660;12.000;2023-04-09T03:11:41;4.35;;;1.75;;
44366;SDS011;30086;57.660;12.000;2023-04-09T03:14:07;3.95;;;1.88;;
44366;SDS011;30086;57.660;12.000;2023-04-09T03:16:33;3.60;;;1.80;;
44366;SDS011;30086;57.660;12.000;2023-04-09T03:18:59;3.33;;;1.40;;
44366;SDS011;30086;57.660;12.000;2023-04-09T03:21:25;3.20;;;1.63;;
44366;SDS011;30086;57.660;12.000;2023-04-09T03:23:52;3.42;;;2.00;;
44366;SDS011;30086;57.660;12.000;2023-04-09T03:26:18;3.95;;;1.95;;
44366;SDS011;30086;57.660;12.000;2023-04-09T03:28:44;4.53;;;2.40;;
44366;SDS011;30086;57.660;12.000;2023-04-09T03:31:10;4.30;;;2.38;;
44366;SDS011;30086;57.660;12.000;2023-04-09T03:33:37;3.25;;;1.70;;
44366;SDS011;30086;57.660;12.000;2023-04-09T03:36:03;4.43;;;1.50;;
44366;SDS011;30086;57.660;12.000;2023-04-09T03:38:30;4.55;;;1.92;;
44366;SDS011;30086;57.660;12.000;2023-04-09T03:40:56;2.83;;;1.95;;
44366;SDS011;30086;57.660;12.000;2023-04-09T03:43:22;4.95;;;2.30;;
44366;SDS011;30086;57.660;12.000;2023-04-09T03:45:48;3.53;;;1.90;;
44366;SDS011;30086;57.660;12.000;2023-04-09T03:48:14;3.70;;;2.08;;
44366;SDS011;30086;57.660;12.000;2023-04-09T03:50:40;2.17;;;1.70;;
44366;SDS011;30086;57.660;12.000;2023-04-09T03:53:06;5.15;;;1.90;;
44366;SDS011;30086;57.660;12.000;2023-04-09T03:55:32;3.10;;;1.88;;
44366;SDS011;30086;57.660;12.000;2023-04-09T03:57:58;3.17;;;2.10;;
44366;SDS011;30086;57.660;12.000;2023-04-09T04:00:24;3.55;;;2.13;;
44366;SDS011;30086;57.660;12.000;2023-04-09T04:02:51;2.85;;;1.90;;
44366;SDS011;30086;57.660;12.000;2023-04-09T04:05:17;3.15;;;1.85;;
44366;SDS011;30086;57.660;12.000;2023-04-09T04:07:43;4.25;;;2.30;;
44366;SDS011;30086;57.660;12.000;2023-04-09T04:10:09;3.33;;;2.13;;
44366;SDS011;30086;57.660;12.000;2023-04-09T04:12:35;3.53;;;1.90;;
44366;SDS011;30086;57.660;12.000;2023-04-09T04:15:05;2.33;;;1.77;;
44366;SDS011;30086;57.660;12.000;2023-04-09T04:17:31;3.08;;;1.85;;
44366;SDS011;30086;57.660;12.000;2023-04-09T04:19:57;3.08;;;1.77;;
44366;SDS011;30086;57.660;12.000;2023-04-09T04:22:23;3.33;;;1.55;;
44366;SDS011;30086;57.660;12.000;2023-04-09T04:24:49;6.20;;;2.45;;
44366;SDS011;30086;57.660;12.000;2023-04-09T04:27:15;6.28;;;2.40;;
44366;SDS011;30086;57.660;12.000;2023-04-09T04:29:41;3.67;;;1.60;;
44366;SDS011;30086;57.660;12.000;2023-04-09T04:32:07;4.80;;;1.80;;
44366;SDS011;30086;57.660;12.000;2023-04-09T04:34:33;4.43;;;1.90;;
44366;SDS011;30086;57.660;12.000;2023-04-09T04:37:00;4.38;;;1.88;;
44366;SDS011;30086;57.660;12.000;2023-04-09T04:39:26;6.47;;;1.70;;
44366;SDS011;30086;57.660;12.000;2023-04-09T04:41:52;4.03;;;1.90;;
44366;SDS011;30086;57.660;12.000;2023-04-09T04:44:18;3.17;;;2.00;;
44366;SDS011;30086;57.660;12.000;2023-04-09T04:46:44;2.72;;;1.73;;
44366;SDS011;30086;57.660;12.000;2023-04-09T04:49:10;5.38;;;1.95;;
44366;SDS011;30086;57.660;12.000;2023-04-09T04:51:36;2.85;;;1.95;;
44366;SDS011;30086;57.660;12.000;2023-04-09T04:54:02;3.70;;;1.65;;
44366;SDS011;30086;57.660;12.000;2023-04-09T04:56:28;2.72;;;1.70;;
44366;SDS011;30086;57.660;12.000;2023-04-09T04:58:54;4.40;;;2.03;;
44366;SDS011;30086;57.660;12.000;2023-04-09T05:01:20;3.35;;;1.70;;
44366;SDS011;30086;57.660;12.000;2023-04-09T05:03:46;8.70;;;2.20;;
44366;SDS011;30086;57.660;12.000;2023-04-09T05:06:12;6.90;;;1.90;;
44366;SDS011;30086;57.660;12.000;2023-04-09T05:08:39;2.60;;;1.65;;
44366;SDS011;30086;57.660;12.000;2023-04-09T05:11:05;2.83;;;1.63;;
44366;SDS011;30086;57.660;12.000;2023-04-09T05:13:31;2.80;;;1.73;;
44366;SDS011;30086;57.660;12.000;2023-04-09T05:15:57;3.05;;;1.50;;
44366;SDS011;30086;57.660;12.000;2023-04-09T05:18:23;2.35;;;1.50;;
44366;SDS011;30086;57.660;12.000;2023-04-09T05:20:49;1.63;;;1.30;;
44366;SDS011;30086;57.660;12.000;2023-04-09T05:23:15;2.75;;;1.65;;
44366;SDS011;30086;57.660;12.000;2023-04-09T05:25:41;3.58;;;1.80;;
44366;SDS011;30086;57.660;12.000;2023-04-09T05:28:07;5.00;;;1.80;;
44366;SDS011;30086;57.660;12.000;2023-04-09T05:30:35;6.05;;;1.83;;
44366;SDS011;30086;57.660;12.000;2023-04-09T05:33:01;5.15;;;1.45;;
44366;SDS011;30086;57.660;12.000;2023-04-09T05:35:27;2.40;;;1.60;;
44366;SDS011;30086;57.660;12.000;2023-04-09T05:37:53;2.50;;;1.52;;
44366;SDS011;30086;57.660;12.000;2023-04-09T05:40:20;4.18;;;1.88;;
44366;SDS011;30086;57.660;12.000;2023-04-09T05:42:46;3.22;;;1.40;;
44366;SDS011;30086;57.660;12.000;2023-04-09T05:45:12;2.35;;;1.65;;
44366;SDS011;30086;57.660;12.000;2023-04-09T05:47:38;3.45;;;1.50;;
44366;SDS011;30086;57.660;12.000;2023-04-09T05:50:04;5.43;;;1.75;;
44366;SDS011;30086;57.660;12.000;2023-04-09T05:52:30;2.95;;;1.75;;
44366;SDS011;30086;57.660;12.000;2023-04-09T05:54:56;4.07;;;1.70;;
44366;SDS011;30086;57.660;12.000;2023-04-09T05:57:23;3.30;;;1.65;;
44366;SDS011;30086;57.660;12.000;2023-04-09T05:59:49;2.08;;;1.40;;
44366;SDS011;30086;57.660;12.000;2023-04-09T06:02:15;3.40;;;1.70;;
44366;SDS011;30086;57.660;12.000;2023-04-09T06:04:41;2.13;;;1.50;;
44366;SDS011;30086;57.660;12.000;2023-04-09T06:07:07;4.32;;;1.30;;
44366;SDS011;30086;57.660;12.000;2023-04-09T06:09:33;2.15;;;1.33;;
44366;SDS011;30086;57.660;12.000;2023-04-09T06:11:59;2.17;;;1.23;;
44366;SDS011;30086;57.660;12.000;2023-04-09T06:14:25;2.22;;;1.40;;
44366;SDS011;30086;57.660;12.000;2023-04-09T06:16:51;2.90;;;1.30;;
44366;SDS011;30086;57.660;12.000;2023-04-09T06:19:17;2.28;;;1.52;;
44366;SDS011;30086;57.660;12.000;2023-04-09T06:21:43;1.42;;;1.33;;
44366;SDS011;30086;57.660;12.000;2023-04-09T06:24:09;2.08;;;1.25;;
44366;SDS011;30086;57.660;12.000;2023-04-09T06:26:35;1.27;;;0.95;;
44366;SDS011;30086;57.660;12.000;2023-04-09T06:29:01;1.33;;;1.08;;
44366;SDS011;30086;57.660;12.000;2023-04-09T06:31:29;2.97;;;1.20;;
44366;SDS011;30086;57.660;12.000;2023-04-09T06:33:55;1.20;;;1.00;;
44366;SDS011;30086;57.660;12.000;2023-04-09T06:36:23;6.03;;;1.48;;
44366;SDS011;30086;57.660;12.000;2023-04-09T06:38:51;3.75;;;1.40;;
44366;SDS011;30086;57.660;12.000;2023-04-09T06:41:19;4.22;;;1.33;;
44366;SDS011;30086;57.660;12.000;2023-04-09T06:43:46;1.88;;;1.27;;
44366;SDS011;30086;57.660;12.000;2023-04-09T06:46:12;5.07;;;1.17;;
44366;SDS011;30086;57.660;12.000;2023-04-09T06:48:41;2.40;;;1.20;;
44366;SDS011;30086;57.660;12.000;2023-04-09T06:51:08;2.28;;;1.30;;
44366;SDS011;30086;57.660;12.000;2023-04-09T06:53:35;4.13;;;2.05;;
44366;SDS011;30086;57.660;12.000;2023-04-09T06:56:01;2.08;;;1.23;;
44366;SDS011;30086;57.660;12.000;2023-04-09T06:58:27;2.08;;;1.23;;
44366;SDS011;30086;57.660;12.000;2023-04-09T07:00:53;2.72;;;1.25;;
44366;SDS011;30086;57.660;12.000;2023-04-09T07:03:19;1.70;;;1.00;;
44366;SDS011;30086;57.660;12.000;2023-04-09T07:05:45;1.63;;;1.05;;
44366;SDS011;30086;57.660;12.000;2023-04-09T07:08:13;2.38;;;1.33;;
44366;SDS011;30086;57.660;12.000;2023-04-09T07:10:40;2.97;;;1.25;;
44366;SDS011;30086;57.660;12.000;2023-04-09T07:13:06;3.75;;;1.20;;
44366;SDS011;30086;57.660;12.000;2023-04-09T07:15:32;3.08;;;1.02;;
44366;SDS011;30086;57.660;12.000;2023-04-09T07:17:58;3.08;;;1.17;;
44366;SDS011;30086;57.660;12.000;2023-04-09T07:20:24;1.90;;;1.20;;
44366;SDS011;30086;57.660;12.000;2023-04-09T07:22:50;1.17;;;1.00;;
44366;SDS011;30086;57.660;12.000;2023-04-09T07:25:16;2.70;;;1.10;;
44366;SDS011;30086;57.660;12.000;2023-04-09T07:27:42;2.33;;;1.33;;
44366;SDS011;30086;57.660;12.000;2023-04-09T07:30:08;2.50;;;1.23;;
44366;SDS011;30086;57.660;12.000;2023-04-09T07:32:35;1.48;;;1.00;;
44366;SDS011;30086;57.660;12.000;2023-04-09T07:35:02;1.60;;;1.00;;
44366;SDS011;30086;57.660;12.000;2023-04-09T07:37:29;1.65;;;1.02;;
44366;SDS011;30086;57.660;12.000;2023-04-09T07:39:55;1.00;;;0.80;;
44366;SDS011;30086;57.660;12.000;2023-04-09T07:42:21;4.10;;;0.98;;
44366;SDS011;30086;57.660;12.000;2023-04-09T07:44:48;1.45;;;0.98;;
44366;SDS011;30086;57.660;12.000;2023-04-09T07:47:14;0.88;;;0.73;;
44366;SDS011;30086;57.660;12.000;2023-04-09T07:49:40;1.88;;;1.00;;
44366;SDS011;30086;57.660;12.000;2023-04-09T07:52:06;1.02;;;0.80;;
44366;SDS011;30086;57.660;12.000;2023-04-09T07:54:32;3.15;;;1.10;;
44366;SDS011;30086;57.660;12.000;2023-04-09T07:56:58;1.80;;;0.90;;
44366;SDS011;30086;57.660;12.000;2023-04-09T07:59:25;1.25;;;0.80;;
44366;SDS011;30086;57.660;12.000;2023-04-09T08:01:52;0.95;;;0.75;;
44366;SDS011;30086;57.660;12.000;2023-04-09T08:04:18;2.50;;;0.82;;
44366;SDS011;30086;57.660;12.000;2023-04-09T08:06:44;1.40;;;0.90;;
44366;SDS011;30086;57.660;12.000;2023-04-09T08:09:14;1.20;;;0.90;;
44366;SDS011;30086;57.660;12.000;2023-04-09T08:11:40;0.70;;;0.68;;
44366;SDS011;30086;57.660;12.000;2023-04-09T08:14:06;2.90;;;0.98;;
44366;SDS011;30086;57.660;12.000;2023-04-09T08:16:37;1.60;;;0.98;;
44366;SDS011;30086;57.660;12.000;2023-04-09T08:19:03;2.60;;;0.85;;
44366;SDS011;30086;57.660;12.000;2023-04-09T08:21:29;4.20;;;0.90;;
44366;SDS011;30086;57.660;12.000;2023-04-09T08:23:57;1.80;;;0.90;;
44366;SDS011;30086;57.660;12.000;2023-04-09T08:26:28;1.83;;;1.08;;
44366;SDS011;30086;57.660;12.000;2023-04-09T08:28:54;2.28;;;1.08;;
44366;SDS011;30086;57.660;12.000;2023-04-09T08:31:20;1.08;;;0.98;;
44366;SDS011;30086;57.660;12.000;2023-04-09T08:33:46;1.08;;;0.85;;
44366;SDS011;30086;57.660;12.000;2023-04-09T08:36:12;1.75;;;1.00;;
44366;SDS011;30086;57.660;12.000;2023-04-09T08:38:38;1.17;;;0.80;;
44366;SDS011;30086;57.660;12.000;2023-04-09T08:41:04;2.55;;;1.08;;
44366;SDS011;30086;57.660;12.000;2023-04-09T08:43:31;1.23;;;1.00;;
44366;SDS011;30086;57.660;12.000;2023-04-09T08:46:17;2.67;;;1.27;;
44366;SDS011;30086;57.660;12.000;2023-04-09T08:48:43;1.30;;;0.90;;
44366;SDS011;30086;57.660;12.000;2023-04-09T08:51:17;1.77;;;1.00;;
44366;SDS011;30086;57.660;12.000;2023-04-09T08:53:47;2.13;;;1.20;;
44366;SDS011;30086;57.660;12.000;2023-04-09T08:56:16;2.30;;;1.00;;
44366;SDS011;30086;57.660;12.000;2023-04-09T08:58:43;1.30;;;0.90;;
44366;SDS011;30086;57.660;12.000;2023-04-09T09:01:22;1.83;;;1.10;;
44366;SDS011;30086;57.660;12.000;2023-04-09T09:04:07;1.90;;;1.13;;
44366;SDS011;30086;57.660;12.000;2023-04-09T09:06:37;1.23;;;0.90;;
44366;SDS011;30086;57.660;12.000;2023-04-09T09:09:07;3.85;;;1.20;;
44366;SDS011;30086;57.660;12.000;2023-04-09T09:11:34;2.05;;;1.10;;
44366;SDS011;30086;57.660;12.000;2023-04-09T09:14:02;3.30;;;1.60;;
44366;SDS011;30086;57.660;12.000;2023-04-09T09:16:29;1.33;;;1.10;;
44366;SDS011;30086;57.660;12.000;2023-04-09T09:18:57;1.67;;;1.30;;
44366;SDS011;30086;57.660;12.000;2023-04-09T09:21:24;3.45;;;1.15;;
44366;SDS011;30086;57.660;12.000;2023-04-09T09:23:51;1.70;;;1.20;;
44366;SDS011;30086;57.660;12.000;2023-04-09T09:26:19;2.42;;;0.93;;
44366;SDS011;30086;57.660;12.000;2023-04-09T09:28:46;1.23;;;1.10;;
44366;SDS011;30086;57.660;12.000;2023-04-09T09:31:13;1.90;;;1.10;;
44366;SDS011;30086;57.660;12.000;2023-04-09T09:33:40;2.40;;;1.00;;
44366;SDS011;30086;57.660;12.000;2023-04-09T09:36:06;1.48;;;1.17;;
44366;SDS011;30086;57.660;12.000;2023-04-09T09:38:54;2.53;;;1.20;;
44366;SDS011;30086;57.660;12.000;2023-04-09T09:41:21;1.50;;;1.30;;
44366;SDS011;30086;57.660;12.000;2023-04-09T09:43:48;2.10;;;1.10;;
44366;SDS011;30086;57.660;12.000;2023-04-09T09:46:14;3.58;;;1.02;;
44366;SDS011;30086;57.660;12.000;2023-04-09T09:48:41;2.45;;;1.10;;
44366;SDS011;30086;57.660;12.000;2023-04-09T09:51:08;2.53;;;1.10;;
44366;SDS011;30086;57.660;12.000;2023-04-09T09:53:35;1.17;;;0.90;;
44366;SDS011;30086;57.660;12.000;2023-04-09T09:56:03;1.33;;;0.93;;
44366;SDS011;30086;57.660;12.000;2023-04-09T09:58:36;3.50;;;1.20;;
44366;SDS011;30086;57.660;12.000;2023-04-09T10:01:06;1.35;;;1.15;;
44366;SDS011;30086;57.660;12.000;2023-04-09T10:03:34;1.70;;;1.15;;
44366;SDS011;30086;57.660;12.000;2023-04-09T10:06:02;2.00;;;1.15;;
44366;SDS011;30086;57.660;12.000;2023-04-09T10:08:30;1.83;;;1.10;;
44366;SDS011;30086;57.660;12.000;2023-04-09T10:10:57;2.63;;;1.30;;
44366;SDS011;30086;57.660;12.000;2023-04-09T10:13:24;4.72;;;1.15;;
44366;SDS011;30086;57.660;12.000;2023-04-09T10:15:53;1.92;;;1.20;;
44366;SDS011;30086;57.660;12.000;2023-04-09T10:18:20;2.35;;;1.00;;
44366;SDS011;30086;57.660;12.000;2023-04-09T10:20:56;1.00;;;0.90;;
44366;SDS011;30086;57.660;12.000;2023-04-09T10:23:26;1.45;;;0.90;;
44366;SDS011;30086;57.660;12.000;2023-04-09T10:25:56;5.53;;;1.20;;
44366;SDS011;30086;57.660;12.000;2023-04-09T10:28:22;2.47;;;1.20;;
44366;SDS011;30086;57.660;12.000;2023-04-09T10:30:48;5.47;;;1.20;;
44366;SDS011;30086;57.660;12.000;2023-04-09T10:33:15;2.70;;;1.10;;
44366;SDS011;30086;57.660;12.000;2023-04-09T10:35:45;1.08;;;0.98;;
44366;SDS011;30086;57.660;12.000;2023-04-09T10:38:13;1.35;;;0.90;;
44366;SDS011;30086;57.660;12.000;2023-04-09T10:40:40;1.27;;;1.15;;
44366;SDS011;30086;57.660;12.000;2023-04-09T10:43:06;1.58;;;0.85;;
44366;SDS011;30086;57.660;12.000;2023-04-09T10:45:40;1.80;;;1.20;;
44366;SDS011;30086;57.660;12.000;2023-04-09T10:48:10;1.42;;;0.90;;
44366;SDS011;30086;57.660;12.000;2023-04-09T10:50:38;1.98;;;1.30;;
44366;SDS011;30086;57.660;12.000;2023-04-09T10:53:04;1.20;;;1.00;;
44366;SDS011;30086;57.660;12.000;2023-04-09T10:55:34;1.45;;;1.00;;
44366;SDS011;30086;57.660;12.000;2023-04-09T10:58:04;4.65;;;1.40;;
44366;SDS011;30086;57.660;12.000;2023-04-09T11:00:32;1.30;;;1.00;;
44366;SDS011;30086;57.660;12.000;2023-04-09T11:05:34;1.38;;;0.90;;
44366;SDS011;30086;57.660;12.000;2023-04-09T11:08:20;1.83;;;0.80;;
44366;SDS011;30086;57.660;12.000;2023-04-09T11:10:47;1.92;;;0.90;;
44366;SDS011;30086;57.660;12.000;2023-04-09T11:13:15;1.90;;;0.75;;
44366;SDS011;30086;57.660;12.000;2023-04-09T11:15:42;1.35;;;1.00;;
44366;SDS011;30086;57.660;12.000;2023-04-09T11:18:08;1.25;;;1.05;;
44366;SDS011;30086;57.660;12.000;2023-04-09T11:20:35;1.05;;;0.50;;
44366;SDS011;30086;57.660;12.000;2023-04-09T11:23:02;1.48;;;1.10;;
44366;SDS011;30086;57.660;12.000;2023-04-09T11:25:29;2.03;;;1.15;;
44366;SDS011;30086;57.660;12.000;2023-04-09T11:27:55;2.40;;;1.20;;
44366;SDS011;30086;57.660;12.000;2023-04-09T11:30:21;2.67;;;1.55;;
44366;SDS011;30086;57.660;12.000;2023-04-09T11:32:49;0.90;;;0.90;;
44366;SDS011;30086;57.660;12.000;2023-04-09T11:35:16;2.83;;;1.13;;
44366;SDS011;30086;57.660;12.000;2023-04-09T11:37:44;2.13;;;1.05;;
44366;SDS011;30086;57.660;12.000;2023-04-09T11:40:17;1.23;;;1.02;;
44366;SDS011;30086;57.660;12.000;2023-04-09T11:42:43;3.33;;;1.17;;
44366;SDS011;30086;57.660;12.000;2023-04-09T11:45:10;3.08;;;1.10;;
44366;SDS011;30086;57.660;12.000;2023-04-09T11:47:38;1.42;;;1.00;;
44366;SDS011;30086;57.660;12.000;2023-04-09T11:50:09;4.80;;;1.50;;
44366;SDS011;30086;57.660;12.000;2023-04-09T11:52:35;2.53;;;1.10;;
44366;SDS011;30086;57.660;12.000;2023-04-09T11:55:02;0.98;;;0.85;;
44366;SDS011;30086;57.660;12.000;2023-04-09T11:58:02;1.77;;;0.90;;
44366;SDS011;30086;57.660;12.000;2023-04-09T12:00:21;2.33;;;1.20;;
44366;SDS011;30086;57.660;12.000;2023-04-09T12:02:49;1.48;;;1.10;;
44366;SDS011;30086;57.660;12.000;2023-04-09T12:05:22;2.45;;;1.00;;
44366;SDS011;30086;57.660;12.000;2023-04-09T12:07:49;2.75;;;1.10;;
44366;SDS011;30086;57.660;12.000;2023-04-09T12:10:15;2.38;;;1.27;;
44366;SDS011;30086;57.660;12.000;2023-04-09T12:12:42;2.72;;;1.23;;
44366;SDS011;30086;57.660;12.000;2023-04-09T12:15:09;2.50;;;1.40;;
44366;SDS011;30086;57.660;12.000;2023-04-09T12:17:35;2.67;;;1.33;;
44366;SDS011;30086;57.660;12.000;2023-04-09T12:20:01;1.23;;;1.13;;
44366;SDS011;30086;57.660;12.000;2023-04-09T12:22:28;2.97;;;1.10;;
44366;SDS011;30086;57.660;12.000;2023-04-09T12:24:54;2.95;;;1.40;;
44366;SDS011;30086;57.660;12.000;2023-04-09T12:27:20;3.60;;;1.33;;
44366;SDS011;30086;57.660;12.000;2023-04-09T12:29:46;2.55;;;1.33;;
44366;SDS011;30086;57.660;12.000;2023-04-09T12:32:13;2.22;;;0.90;;
44366;SDS011;30086;57.660;12.000;2023-04-09T12:34:40;5.55;;;1.50;;
44366;SDS011;30086;57.660;12.000;2023-04-09T12:37:06;1.30;;;1.02;;
44366;SDS011;30086;57.660;12.000;2023-04-09T12:39:33;1.05;;;0.90;;
44366;SDS011;30086;57.660;12.000;2023-04-09T12:42:00;1.88;;;1.20;;
44366;SDS011;30086;57.660;12.000;2023-04-09T12:44:27;2.10;;;1.40;;
44366;SDS011;30086;57.660;12.000;2023-04-09T12:46:53;3.42;;;1.10;;
44366;SDS011;30086;57.660;12.000;2023-04-09T12:49:23;2.70;;;1.30;;
44366;SDS011;30086;57.660;12.000;2023-04-09T12:51:49;1.10;;;0.90;;
44366;SDS011;30086;57.660;12.000;2023-04-09T12:54:16;2.25;;;1.00;;
44366;SDS011;30086;57.660;12.000;2023-04-09T12:56:43;1.27;;;0.90;;
44366;SDS011;30086;57.660;12.000;2023-04-09T12:59:10;3.63;;;1.10;;
44366;SDS011;30086;57.660;12.000;2023-04-09T13:01:36;1.38;;;0.82;;
44366;SDS011;30086;57.660;12.000;2023-04-09T13:04:02;1.10;;;0.90;;
44366;SDS011;30086;57.660;12.000;2023-04-09T13:06:29;1.95;;;1.10;;
44366;SDS011;30086;57.660;12.000;2023-04-09T13:08:57;2.05;;;1.20;;
44366;SDS011;30086;57.660;12.000;2023-04-09T13:11:23;2.70;;;1.13;;
44366;SDS011;30086;57.660;12.000;2023-04-09T13:13:49;2.20;;;0.88;;
44366;SDS011;30086;57.660;12.000;2023-04-09T13:16:16;1.63;;;1.08;;
44366;SDS011;30086;57.660;12.000;2023-04-09T13:18:43;5.45;;;1.08;;
44366;SDS011;30086;57.660;12.000;2023-04-09T13:21:09;1.50;;;0.95;;
44366;SDS011;30086;57.660;12.000;2023-04-09T13:23:37;1.20;;;0.85;;
44366;SDS011;30086;57.660;12.000;2023-04-09T13:26:03;1.42;;;0.90;;
44366;SDS011;30086;57.660;12.000;2023-04-09T13:28:29;1.58;;;1.05;;
44366;SDS011;30086;57.660;12.000;2023-04-09T13:30:55;1.75;;;1.10;;
44366;SDS011;30086;57.660;12.000;2023-04-09T13:33:21;2.80;;;1.00;;
44366;SDS011;30086;57.660;12.000;2023-04-09T13:35:47;1.42;;;1.05;;
44366;SDS011;30086;57.660;12.000;2023-04-09T13:38:15;1.80;;;0.95;;
44366;SDS011;30086;57.660;12.000;2023-04-09T13:40:41;3.80;;;1.27;;
44366;SDS011;30086;57.660;12.000;2023-04-09T13:43:07;1.83;;;1.13;;
44366;SDS011;30086;57.660;12.000;2023-04-09T13:45:33;1.35;;;0.90;;
44366;SDS011;30086;57.660;12.000;2023-04-09T13:47:59;3.80;;;1.33;;
44366;SDS011;30086;57.660;12.000;2023-04-09T13:50:25;3.58;;;1.10;;
44366;SDS011;30086;57.660;12.000;2023-04-09T13:52:51;1.98;;;1.15;;
44366;SDS011;30086;57.660;12.000;2023-04-09T13:55:17;4.55;;;3.03;;
44366;SDS011;30086;57.660;12.000;2023-04-09T13:57:43;1.92;;;1.55;;
44366;SDS011;30086;57.660;12.000;2023-04-09T14:00:10;5.93;;;1.75;;
44366;SDS011;30086;57.660;12.000;2023-04-09T14:02:36;4.45;;;1.83;;
44366;SDS011;30086;57.660;12.000;2023-04-09T14:05:02;2.05;;;1.50;;
44366;SDS011;30086;57.660;12.000;2023-04-09T14:07:28;4.93;;;2.97;;
44366;SDS011;30086;57.660;12.000;2023-04-09T14:09:54;2.53;;;1.60;;
44366;SDS011;30086;57.660;12.000;2023-04-09T14:12:20;2.30;;;1.50;;
44366;SDS011;30086;57.660;12.000;2023-04-09T14:14:46;5.65;;;1.40;;
44366;SDS011;30086;57.660;12.000;2023-04-09T14:17:13;1.67;;;1.38;;
44366;SDS011;30086;57.660;12.000;2023-04-09T14:19:40;3.55;;;1.77;;
44366;SDS011;30086;57.660;12.000;2023-04-09T14:22:06;2.03;;;1.30;;
44366;SDS011;30086;57.660;12.000;2023-04-09T14:24:33;3.75;;;1.40;;
44366;SDS011;30086;57.660;12.000;2023-04-09T14:27:04;1.98;;;1.23;;
44366;SDS011;30086;57.660;12.000;2023-04-09T14:29:33;2.88;;;1.35;;
44366;SDS011;30086;57.660;12.000;2023-04-09T14:31:59;1.90;;;1.40;;
44366;SDS011;30086;57.660;12.000;2023-04-09T14:34:26;2.55;;;1.50;;
44366;SDS011;30086;57.660;12.000;2023-04-09T14:36:52;2.28;;;1.23;;
44366;SDS011;30086;57.660;12.000;2023-04-09T14:39:18;1.40;;;1.10;;
44366;SDS011;30086;57.660;12.000;2023-04-09T14:41:44;4.03;;;1.00;;
44366;SDS011;30086;57.660;12.000;2023-04-09T14:44:10;2.78;;;1.50;;